sensor_id;sensor_type;location;lat;lon;timestamp;pressure;altitude;pressure_sealevel;temperature;humidity
11349;BME280;5729;43.570;27.826;2022-12-10T00:00:34;98594.88;;;13.15;100.00
11349;BME280;5729;43.570;27.826;2022-12-10T00:03:00;98587.91;;;13.14;100.00
11349;BME280;5729;43.570;27.826;2022-12-10T00:05:26;98590.56;;;13.10;100.00
11349;BME280;5729;43.570;27.826;2022-12-10T00:07:51;98586.31;;;13.09;100.00
11349;BME280;5729;43.570;27.826;2022-12-10T00:10:17;98578.59;;;13.08;100.00
11349;BME280;5729;43.570;27.826;2022-12-10T00:12:42;98577.81;;;13.00;100.00
11349;BME280;5729;43.570;27.826;2022-12-10T00:15:08;98575.50;;;13.02;100.00
11349;BME280;5729;43.570;27.826;2022-12-10T00:17:33;98570.84;;;12.99;100.00
11349;BME280;5729;43.570;27.826;2022-12-10T00:19:58;98573.56;;;13.03;100.00
11349;BME280;5729;43.570;27.826;2022-12-10T00:22:24;98567.38;;;13.02;100.00
11349;BME280;5729;43.570;27.826;2022-12-10T00:24:49;98568.53;;;13.01;100.00
11349;BME280;5729;43.570;27.826;2022-12-10T00:27:15;98570.09;;;13.02;100.00
11349;BME280;5729;43.570;27.826;2022-12-10T00:29:40;98558.91;;;13.07;100.00
11349;BME280;5729;43.570;27.826;2022-12-10T00:32:05;98558.13;;;13.07;100.00
11349;BME280;5729;43.570;27.826;2022-12-10T00:34:31;98545.75;;;13.06;100.00
11349;BME280;5729;43.570;27.826;2022-12-10T00:36:57;98539.16;;;13.10;100.00
11349;BME280;5729;43.570;27.826;2022-12-10T00:39:22;98544.56;;;13.10;100.00
11349;BME280;5729;43.570;27.826;2022-12-10T00:41:48;98539.97;;;13.15;100.00
11349;BME280;5729;43.570;27.826;2022-12-10T00:44:14;98540.38;;;13.17;100.00
11349;BME280;5729;43.570;27.826;2022-12-10T00:46:40;98539.97;;;13.22;100.00
11349;BME280;5729;43.570;27.826;2022-12-10T00:49:06;98543.84;;;13.24;100.00
11349;BME280;5729;43.570;27.826;2022-12-10T00:51:31;98550.81;;;13.29;100.00
11349;BME280;5729;43.570;27.826;2022-12-10T00:53:57;98542.69;;;13.29;100.00
11349;BME280;5729;43.570;27.826;2022-12-10T00:56:26;98533.03;;;13.24;100.00
11349;BME280;5729;43.570;27.826;2022-12-10T00:58:52;98552.75;;;13.35;100.00
11349;BME280;5729;43.570;27.826;2022-12-10T01:03:47;98537.66;;;13.41;100.00
11349;BME280;5729;43.570;27.826;2022-12-10T01:06:14;98541.16;;;13.38;100.00
11349;BME280;5729;43.570;27.826;2022-12-10T01:08:41;98545.78;;;13.45;100.00
11349;BME280;5729;43.570;27.826;2022-12-10T01:11:08;98545.78;;;13.45;100.00
11349;BME280;5729;43.570;27.826;2022-12-10T01:13:34;98538.03;;;13.47;100.00
11349;BME280;5729;43.570;27.826;2022-12-10T01:16:04;98542.28;;;13.48;100.00
11349;BME280;5729;43.570;27.826;2022-12-10T01:18:30;98539.19;;;13.50;100.00
11349;BME280;5729;43.570;27.826;2022-12-10T01:21:00;98543.84;;;13.49;100.00
11349;BME280;5729;43.570;27.826;2022-12-10T01:23:27;98546.56;;;13.53;100.00
11349;BME280;5729;43.570;27.826;2022-12-10T01:25:52;98542.69;;;13.54;100.00
11349;BME280;5729;43.570;27.826;2022-12-10T01:28:17;98528.75;;;13.48;100.00
11349;BME280;5729;43.570;27.826;2022-12-10T01:30:43;98521.41;;;13.52;100.00
11349;BME280;5729;43.570;27.826;2022-12-10T01:33:08;98522.56;;;13.55;100.00
11349;BME280;5729;43.570;27.826;2022-12-10T01:35:37;98522.56;;;13.55;100.00
11349;BME280;5729;43.570;27.826;2022-12-10T01:38:02;98517.56;;;13.53;100.00
11349;BME280;5729;43.570;27.826;2022-12-10T01:40:28;98485.84;;;13.43;100.00
11349;BME280;5729;43.570;27.826;2022-12-10T01:42:53;98494.34;;;13.52;100.00
11349;BME280;5729;43.570;27.826;2022-12-10T01:45:19;98497.81;;;13.56;100.00
11349;BME280;5729;43.570;27.826;2022-12-10T01:47:44;98495.47;;;13.55;100.00
11349;BME280;5729;43.570;27.826;2022-12-10T01:50:10;98487.75;;;13.57;100.00
11349;BME280;5729;43.570;27.826;2022-12-10T01:52:36;98483.50;;;13.59;100.00
11349;BME280;5729;43.570;27.826;2022-12-10T01:55:07;98487.75;;;13.60;100.00
11349;BME280;5729;43.570;27.826;2022-12-10T01:57:33;98463.38;;;13.60;100.00
11349;BME280;5729;43.570;27.826;2022-12-10T02:00:03;98471.50;;;13.60;100.00
11349;BME280;5729;43.570;27.826;2022-12-10T02:05:25;98465.69;;;13.65;100.00
11349;BME280;5729;43.570;27.826;2022-12-10T02:11:16;98471.09;;;13.69;100.00
11349;BME280;5729;43.570;27.826;2022-12-10T02:13:48;98461.03;;;13.66;100.00
11349;BME280;5729;43.570;27.826;2022-12-10T02:16:31;98463.34;;;13.67;100.00
11349;BME280;5729;43.570;27.826;2022-12-10T02:21:46;98457.94;;;13.67;100.00
11349;BME280;5729;43.570;27.826;2022-12-10T02:24:18;98455.63;;;13.66;100.00
11349;BME280;5729;43.570;27.826;2022-12-10T02:27:06;98452.56;;;13.60;100.00
11349;BME280;5729;43.570;27.826;2022-12-10T02:29:34;98454.09;;;13.65;100.00
11349;BME280;5729;43.570;27.826;2022-12-10T02:32:08;98448.25;;;13.66;100.00
11349;BME280;5729;43.570;27.826;2022-12-10T02:34:40;98457.94;;;13.67;100.00
11349;BME280;5729;43.570;27.826;2022-12-10T02:37:12;98449.03;;;13.67;100.00
11349;BME280;5729;43.570;27.826;2022-12-10T02:39:44;98457.97;;;13.64;100.00
11349;BME280;5729;43.570;27.826;2022-12-10T02:42:12;98454.09;;;13.65;100.00
11349;BME280;5729;43.570;27.826;2022-12-10T02:44:42;98454.88;;;13.65;100.00
11349;BME280;5729;43.570;27.826;2022-12-10T02:47:09;98442.88;;;13.63;100.00
11349;BME280;5729;43.570;27.826;2022-12-10T02:49:36;98456.81;;;13.65;100.00
11349;BME280;5729;43.570;27.826;2022-12-10T02:52:08;98450.97;;;13.66;100.00
11349;BME280;5729;43.570;27.826;2022-12-10T02:54:46;98440.94;;;13.56;100.00
11349;BME280;5729;43.570;27.826;2022-12-10T03:00:09;98433.56;;;13.67;100.00
11349;BME280;5729;43.570;27.826;2022-12-10T03:05:52;98437.47;;;13.63;100.00
11349;BME280;5729;43.570;27.826;2022-12-10T03:08:24;98440.53;;;13.68;100.00
11349;BME280;5729;43.570;27.826;2022-12-10T03:11:44;98435.91;;;13.65;100.00
11349;BME280;5729;43.570;27.826;2022-12-10T03:14:13;98440.16;;;13.63;100.00
11349;BME280;5729;43.570;27.826;2022-12-10T03:16:44;98440.94;;;13.60;100.00
11349;BME280;5729;43.570;27.826;2022-12-10T03:19:13;98451.38;;;13.61;100.00
11349;BME280;5729;43.570;27.826;2022-12-10T03:21:41;98452.56;;;13.60;100.00
11349;BME280;5729;43.570;27.826;2022-12-10T03:24:08;98447.53;;;13.55;100.00
11349;BME280;5729;43.570;27.826;2022-12-10T03:26:37;98452.56;;;13.60;100.00
11349;BME280;5729;43.570;27.826;2022-12-10T03:29:07;98425.91;;;13.48;100.00
11349;BME280;5729;43.570;27.826;2022-12-10T03:31:34;98449.44;;;13.58;100.00
11349;BME280;5729;43.570;27.826;2022-12-10T03:34:02;98435.94;;;13.51;100.00
11349;BME280;5729;43.570;27.826;2022-12-10T03:36:29;98445.19;;;13.61;100.00
11349;BME280;5729;43.570;27.826;2022-12-10T03:38:56;98439.81;;;13.54;100.00
11349;BME280;5729;43.570;27.826;2022-12-10T03:41:22;98424.72;;;13.49;100.00
11349;BME280;5729;43.570;27.826;2022-12-10T03:43:55;98444.81;;;13.59;100.00
11349;BME280;5729;43.570;27.826;2022-12-10T03:46:22;98432.00;;;13.66;100.00
11349;BME280;5729;43.570;27.826;2022-12-10T03:48:48;98440.91;;;13.67;100.00
11349;BME280;5729;43.570;27.826;2022-12-10T03:51:13;98433.22;;;13.65;100.00
11349;BME280;5729;43.570;27.826;2022-12-10T03:53:40;98431.66;;;13.64;100.00
11349;BME280;5729;43.570;27.826;2022-12-10T03:56:05;98431.66;;;13.64;100.00
11349;BME280;5729;43.570;27.826;2022-12-10T03:58:31;98417.75;;;13.62;100.00
11349;BME280;5729;43.570;27.826;2022-12-10T04:00:56;98428.91;;;13.68;100.00
11349;BME280;5729;43.570;27.826;2022-12-10T04:03:22;98433.56;;;13.67;100.00
11349;BME280;5729;43.570;27.826;2022-12-10T04:05:47;98422.72;;;13.67;100.00
11349;BME280;5729;43.570;27.826;2022-12-10T04:08:12;98416.97;;;13.65;100.00
11349;BME280;5729;43.570;27.826;2022-12-10T04:10:38;98419.63;;;13.72;100.00
11349;BME280;5729;43.570;27.826;2022-12-10T04:13:04;98428.13;;;13.74;100.00
11349;BME280;5729;43.570;27.826;2022-12-10T04:15:48;98411.13;;;13.70;100.00
11349;BME280;5729;43.570;27.826;2022-12-10T04:18:32;98416.91;;;13.72;100.00
11349;BME280;5729;43.570;27.826;2022-12-10T04:20:57;98415.75;;;13.73;100.00
11349;BME280;5729;43.570;27.826;2022-12-10T04:23:41;98402.22;;;13.73;100.00
11349;BME280;5729;43.570;27.826;2022-12-10T04:26:45;98407.63;;;13.73;100.00
11349;BME280;5729;43.570;27.826;2022-12-10T04:29:17;98404.53;;;13.75;100.00
11349;BME280;5729;43.570;27.826;2022-12-10T04:31:43;98400.25;;;13.77;100.00
11349;BME280;5729;43.570;27.826;2022-12-10T04:34:08;98409.56;;;13.76;100.00
11349;BME280;5729;43.570;27.826;2022-12-10T04:36:34;98407.59;;;13.80;100.00
11349;BME280;5729;43.570;27.826;2022-12-10T04:38:59;98412.28;;;13.76;100.00
11349;BME280;5729;43.570;27.826;2022-12-10T04:41:25;98409.91;;;13.78;100.00
11349;BME280;5729;43.570;27.826;2022-12-10T04:43:52;98411.47;;;13.79;100.00
11349;BME280;5729;43.570;27.826;2022-12-10T04:46:17;98405.28;;;13.79;100.00
11349;BME280;5729;43.570;27.826;2022-12-10T04:48:43;98420.00;;;13.74;100.00
11349;BME280;5729;43.570;27.826;2022-12-10T04:51:08;98428.53;;;13.76;100.00
11349;BME280;5729;43.570;27.826;2022-12-10T04:53:33;98423.84;;;13.77;100.00
11349;BME280;5729;43.570;27.826;2022-12-10T04:55:59;98426.97;;;13.75;100.00
11349;BME280;5729;43.570;27.826;2022-12-10T04:58:26;98414.59;;;13.71;100.00
11349;BME280;5729;43.570;27.826;2022-12-10T05:01:02;98417.31;;;13.71;100.00
11349;BME280;5729;43.570;27.826;2022-12-10T05:03:28;98409.19;;;13.71;100.00
11349;BME280;5729;43.570;27.826;2022-12-10T05:05:53;98412.28;;;13.69;100.00
11349;BME280;5729;43.570;27.826;2022-12-10T05:08:19;98426.97;;;13.68;100.00
11349;BME280;5729;43.570;27.826;2022-12-10T05:10:44;98435.50;;;13.70;100.00
11349;BME280;5729;43.570;27.826;2022-12-10T05:13:09;98424.66;;;13.70;100.00
11349;BME280;5729;43.570;27.826;2022-12-10T05:15:38;98431.63;;;13.68;100.00
11349;BME280;5729;43.570;27.826;2022-12-10T05:18:03;98430.06;;;13.70;100.00
11349;BME280;5729;43.570;27.826;2022-12-10T05:20:29;98443.63;;;13.70;100.00
11349;BME280;5729;43.570;27.826;2022-12-10T05:22:54;98439.38;;;13.69;100.00
11349;BME280;5729;43.570;27.826;2022-12-10T05:25:38;98438.59;;;13.69;100.00
11349;BME280;5729;43.570;27.826;2022-12-10T05:28:21;98441.69;;;13.67;100.00
11349;BME280;5729;43.570;27.826;2022-12-10T05:30:47;98437.44;;;13.66;100.00
11349;BME280;5729;43.570;27.826;2022-12-10T05:33:13;98410.03;;;13.54;100.00
11349;BME280;5729;43.570;27.826;2022-12-10T05:35:39;98433.94;;;13.73;100.00
11349;BME280;5729;43.570;27.826;2022-12-10T05:38:05;98435.09;;;13.75;100.00
11349;BME280;5729;43.570;27.826;2022-12-10T05:40:35;98435.88;;;13.76;100.00
11349;BME280;5729;43.570;27.826;2022-12-10T05:43:00;98435.50;;;13.74;100.00
11349;BME280;5729;43.570;27.826;2022-12-10T05:45:26;98446.31;;;13.74;100.00
11349;BME280;5729;43.570;27.826;2022-12-10T05:47:52;98438.19;;;13.74;100.00
11349;BME280;5729;43.570;27.826;2022-12-10T05:50:17;98435.09;;;13.75;100.00
11349;BME280;5729;43.570;27.826;2022-12-10T05:52:43;98429.28;;;13.77;100.00
11349;BME280;5729;43.570;27.826;2022-12-10T05:55:08;98441.66;;;13.78;100.00
11349;BME280;5729;43.570;27.826;2022-12-10T05:57:36;98435.06;;;13.79;100.00
11349;BME280;5729;43.570;27.826;2022-12-10T06:00:03;98433.91;;;13.80;100.00
11349;BME280;5729;43.570;27.826;2022-12-10T06:02:32;98423.47;;;13.78;100.00
11349;BME280;5729;43.570;27.826;2022-12-10T06:04:57;98438.91;;;13.89;100.00
11349;BME280;5729;43.570;27.826;2022-12-10T06:07:23;98435.81;;;13.90;100.00
11349;BME280;5729;43.570;27.826;2022-12-10T06:09:48;98426.91;;;13.90;100.00
11349;BME280;5729;43.570;27.826;2022-12-10T06:12:14;98435.00;;;13.97;100.00
11349;BME280;5729;43.570;27.826;2022-12-10T06:14:39;98440.03;;;13.95;100.00
11349;BME280;5729;43.570;27.826;2022-12-10T06:17:04;98435.41;;;13.95;100.00
11349;BME280;5729;43.570;27.826;2022-12-10T06:19:30;98441.59;;;13.99;100.00
11349;BME280;5729;43.570;27.826;2022-12-10T06:21:55;98434.59;;;14.02;100.00
11349;BME280;5729;43.570;27.826;2022-12-10T06:24:21;98433.44;;;14.03;100.00
11349;BME280;5729;43.570;27.826;2022-12-10T06:26:46;98437.28;;;14.05;100.00
11349;BME280;5729;43.570;27.826;2022-12-10T06:29:11;98432.63;;;14.09;100.00
11349;BME280;5729;43.570;27.826;2022-12-10T06:31:37;98435.31;;;14.13;100.00
11349;BME280;5729;43.570;27.826;2022-12-10T06:34:02;98432.19;;;14.18;100.00
11349;BME280;5729;43.570;27.826;2022-12-10T06:36:28;98430.63;;;14.21;100.00
11349;BME280;5729;43.570;27.826;2022-12-10T06:38:53;98430.59;;;14.24;100.00
11349;BME280;5729;43.570;27.826;2022-12-10T06:41:19;98437.56;;;14.25;100.00
11349;BME280;5729;43.570;27.826;2022-12-10T06:43:48;98441.81;;;14.30;100.00
11349;BME280;5729;43.570;27.826;2022-12-10T06:46:16;98429.00;;;14.34;100.00
11349;BME280;5729;43.570;27.826;2022-12-10T06:48:42;98426.66;;;14.36;100.00
11349;BME280;5729;43.570;27.826;2022-12-10T06:51:09;98429.78;;;14.41;100.00
11349;BME280;5729;43.570;27.826;2022-12-10T06:53:35;98434.75;;;14.46;100.00
11349;BME280;5729;43.570;27.826;2022-12-10T06:56:02;98429.72;;;14.45;100.00
11349;BME280;5729;43.570;27.826;2022-12-10T06:58:29;98407.28;;;14.37;100.00
11349;BME280;5729;43.570;27.826;2022-12-10T07:01:05;98421.53;;;14.56;100.00
11349;BME280;5729;43.570;27.826;2022-12-10T07:03:31;98430.41;;;14.60;100.00
11349;BME280;5729;43.570;27.826;2022-12-10T07:05:58;98423.03;;;14.60;100.00
11349;BME280;5729;43.570;27.826;2022-12-10T07:08:24;98419.09;;;14.68;100.00
11349;BME280;5729;43.570;27.826;2022-12-10T07:10:49;98400.25;;;14.54;100.00
11349;BME280;5729;43.570;27.826;2022-12-10T07:13:15;98421.81;;;14.68;100.00
11349;BME280;5729;43.570;27.826;2022-12-10T07:15:40;98417.56;;;14.67;100.00
11349;BME280;5729;43.570;27.826;2022-12-10T07:18:06;98423.75;;;14.71;100.00
11349;BME280;5729;43.570;27.826;2022-12-10T07:20:31;98412.88;;;14.71;100.00
11349;BME280;5729;43.570;27.826;2022-12-10T07:22:57;98419.09;;;14.72;100.00
11349;BME280;5729;43.570;27.826;2022-12-10T07:25:22;98427.59;;;14.74;100.00
11349;BME280;5729;43.570;27.826;2022-12-10T07:27:47;98411.38;;;14.67;100.00
11349;BME280;5729;43.570;27.826;2022-12-10T07:30:13;98411.75;;;14.69;100.00
11349;BME280;5729;43.570;27.826;2022-12-10T07:32:38;98421.41;;;14.73;100.00
11349;BME280;5729;43.570;27.826;2022-12-10T07:35:04;98416.34;;;14.75;100.00
11349;BME280;5729;43.570;27.826;2022-12-10T07:37:30;98412.84;;;14.78;100.00
11349;BME280;5729;43.570;27.826;2022-12-10T07:39:55;98416.72;;;14.77;100.00
11349;BME280;5729;43.570;27.826;2022-12-10T07:42:21;98419.84;;;14.76;100.00
11349;BME280;5729;43.570;27.826;2022-12-10T07:44:48;98413.59;;;14.79;100.00
11349;BME280;5729;43.570;27.826;2022-12-10T07:47:13;98404.66;;;14.85;100.00
11349;BME280;5729;43.570;27.826;2022-12-10T07:49:39;98409.59;;;14.94;100.00
11349;BME280;5729;43.570;27.826;2022-12-10T07:52:05;98408.44;;;14.95;100.00
11349;BME280;5729;43.570;27.826;2022-12-10T07:54:30;98411.91;;;14.96;100.00
11349;BME280;5729;43.570;27.826;2022-12-10T07:56:55;98407.66;;;14.95;100.00
11349;BME280;5729;43.570;27.826;2022-12-10T07:59:21;98401.03;;;14.99;100.00
11349;BME280;5729;43.570;27.826;2022-12-10T08:01:46;98394.00;;;15.02;100.00
11349;BME280;5729;43.570;27.826;2022-12-10T08:04:12;98399.81;;;15.04;100.00
11349;BME280;5729;43.570;27.826;2022-12-10T08:06:38;98400.19;;;15.06;100.00
11349;BME280;5729;43.570;27.826;2022-12-10T08:09:03;98392.06;;;15.06;100.00
11349;BME280;5729;43.570;27.826;2022-12-10T08:11:29;98396.69;;;15.09;100.00
11349;BME280;5729;43.570;27.826;2022-12-10T08:13:54;98402.81;;;15.13;100.00
11349;BME280;5729;43.570;27.826;2022-12-10T08:16:22;98397.75;;;15.18;100.00
11349;BME280;5729;43.570;27.826;2022-12-10T08:18:50;98399.66;;;15.21;100.00
11349;BME280;5729;43.570;27.826;2022-12-10T08:21:18;98397.63;;;15.29;100.00
11349;BME280;5729;43.570;27.826;2022-12-10T08:23:44;98401.44;;;15.35;100.00
11349;BME280;5729;43.570;27.826;2022-12-10T08:26:12;98381.75;;;15.27;100.00
11349;BME280;5729;43.570;27.826;2022-12-10T08:28:38;98386.22;;;15.45;100.00
11349;BME280;5729;43.570;27.826;2022-12-10T08:31:04;98385.38;;;15.55;100.00
11349;BME280;5729;43.570;27.826;2022-12-10T08:33:33;98390.97;;;15.71;100.00
11349;BME280;5729;43.570;27.826;2022-12-10T08:35:59;98385.41;;;15.82;100.00
11349;BME280;5729;43.570;27.826;2022-12-10T08:38:26;98386.19;;;15.82;100.00
11349;BME280;5729;43.570;27.826;2022-12-10T08:40:51;98390.00;;;15.88;100.00
11349;BME280;5729;43.570;27.826;2022-12-10T08:43:17;98386.00;;;15.96;100.00
11349;BME280;5729;43.570;27.826;2022-12-10T08:45:42;98385.75;;;15.87;100.00
11349;BME280;5729;43.570;27.826;2022-12-10T08:48:08;98381.44;;;15.90;100.00
11349;BME280;5729;43.570;27.826;2022-12-10T08:50:33;98377.88;;;15.93;100.00
11349;BME280;5729;43.570;27.826;2022-12-10T08:52:59;98387.22;;;15.92;100.00
11349;BME280;5729;43.570;27.826;2022-12-10T08:55:25;98375.56;;;15.91;100.00
11349;BME280;5729;43.570;27.826;2022-12-10T08:57:50;98374.41;;;15.92;100.00
11349;BME280;5729;43.570;27.826;2022-12-10T09:00:16;98374.69;;;16.02;100.00
11349;BME280;5729;43.570;27.826;2022-12-10T09:02:42;98373.03;;;16.08;100.00
11349;BME280;5729;43.570;27.826;2022-12-10T09:05:07;98372.94;;;16.15;100.00
11349;BME280;5729;43.570;27.826;2022-12-10T09:07:33;98348.06;;;16.16;100.00
11349;BME280;5729;43.570;27.826;2022-12-10T09:09:58;98351.38;;;16.54;100.00
11349;BME280;5729;43.570;27.826;2022-12-10T09:12:24;98353.97;;;16.85;100.00
11349;BME280;5729;43.570;27.826;2022-12-10T09:14:49;98338.41;;;17.09;100.00
11349;BME280;5729;43.570;27.826;2022-12-10T09:17:15;98342.19;;;17.34;100.00
11349;BME280;5729;43.570;27.826;2022-12-10T09:19:40;98336.44;;;17.29;100.00
11349;BME280;5729;43.570;27.826;2022-12-10T09:22:06;98328.00;;;17.43;100.00
11349;BME280;5729;43.570;27.826;2022-12-10T09:24:31;98319.69;;;17.70;100.00
11349;BME280;5729;43.570;27.826;2022-12-10T09:26:57;98308.22;;;17.78;100.00
11349;BME280;5729;43.570;27.826;2022-12-10T09:29:22;98313.78;;;17.91;100.00
11349;BME280;5729;43.570;27.826;2022-12-10T09:31:51;98306.34;;;18.60;100.00
11349;BME280;5729;43.570;27.826;2022-12-10T09:34:17;98307.03;;;18.93;100.00
11349;BME280;5729;43.570;27.826;2022-12-10T09:36:44;98298.72;;;18.97;100.00
11349;BME280;5729;43.570;27.826;2022-12-10T09:39:09;98297.41;;;19.17;100.00
11349;BME280;5729;43.570;27.826;2022-12-10T09:46:52;98281.28;;;18.94;100.00
11349;BME280;5729;43.570;27.826;2022-12-10T09:52:02;98278.63;;;19.86;100.00
11349;BME280;5729;43.570;27.826;2022-12-10T09:54:41;98271.06;;;20.41;100.00
11349;BME280;5729;43.570;27.826;2022-12-10T09:57:20;98267.94;;;21.21;100.00
11349;BME280;5729;43.570;27.826;2022-12-10T09:59:50;98261.94;;;21.66;100.00
11349;BME280;5729;43.570;27.826;2022-12-10T10:02:30;98255.16;;;21.58;100.00
11349;BME280;5729;43.570;27.826;2022-12-10T10:05:10;98250.03;;;21.69;100.00
11349;BME280;5729;43.570;27.826;2022-12-10T10:07:42;98257.97;;;21.67;100.00
11349;BME280;5729;43.570;27.826;2022-12-10T10:10:44;98248.63;;;21.95;100.00
11349;BME280;5729;43.570;27.826;2022-12-10T10:13:11;98269.88;;;22.04;100.00
11349;BME280;5729;43.570;27.826;2022-12-10T10:15:41;98274.53;;;21.94;100.00
11349;BME280;5729;43.570;27.826;2022-12-10T10:21:05;98241.44;;;21.89;100.00
11349;BME280;5729;43.570;27.826;2022-12-10T10:23:32;98248.69;;;21.73;100.00
11349;BME280;5729;43.570;27.826;2022-12-10T10:25:58;98226.44;;;21.71;100.00
11349;BME280;5729;43.570;27.826;2022-12-10T10:28:24;98245.53;;;21.84;100.00
11349;BME280;5729;43.570;27.826;2022-12-10T10:30:51;98229.31;;;21.68;100.00
11349;BME280;5729;43.570;27.826;2022-12-10T10:33:18;98220.31;;;21.98;100.00
11349;BME280;5729;43.570;27.826;2022-12-10T10:35:47;98218.56;;;22.32;100.00
11349;BME280;5729;43.570;27.826;2022-12-10T10:38:17;98213.25;;;21.88;100.00
11349;BME280;5729;43.570;27.826;2022-12-10T10:40:45;98212.09;;;22.07;100.00
11349;BME280;5729;43.570;27.826;2022-12-10T10:43:24;98214.59;;;22.69;100.00
11349;BME280;5729;43.570;27.826;2022-12-10T10:46:02;98213.81;;;22.69;100.00
11349;BME280;5729;43.570;27.826;2022-12-10T10:48:30;98213.50;;;22.30;100.00
11349;BME280;5729;43.570;27.826;2022-12-10T10:51:07;98218.09;;;22.33;100.00
11349;BME280;5729;43.570;27.826;2022-12-10T10:53:50;98219.66;;;22.89;100.00
11349;BME280;5729;43.570;27.826;2022-12-10T10:56:25;98211.72;;;22.82;100.00
11349;BME280;5729;43.570;27.826;2022-12-10T10:59:06;98206.94;;;22.46;100.00
11349;BME280;5729;43.570;27.826;2022-12-10T11:01:54;98209.00;;;21.96;100.00
11349;BME280;5729;43.570;27.826;2022-12-10T11:04:36;98219.25;;;22.05;100.00
11349;BME280;5729;43.570;27.826;2022-12-10T11:07:04;98213.84;;;21.83;100.00
11349;BME280;5729;43.570;27.826;2022-12-10T11:09:33;98206.88;;;21.51;100.00
11349;BME280;5729;43.570;27.826;2022-12-10T11:12:10;98199.56;;;21.57;100.00
11349;BME280;5729;43.570;27.826;2022-12-10T11:14:46;98208.41;;;21.52;100.00
11349;BME280;5729;43.570;27.826;2022-12-10T11:19:42;98207.66;;;21.21;100.00
11349;BME280;5729;43.570;27.826;2022-12-10T11:22:30;98173.63;;;21.40;100.00
11349;BME280;5729;43.570;27.826;2022-12-10T11:24:57;98200.38;;;21.67;100.00
11349;BME280;5729;43.570;27.826;2022-12-10T11:27:50;98201.50;;;21.48;100.00
11349;BME280;5729;43.570;27.826;2022-12-10T11:30:22;98206.66;;;20.93;100.00
11349;BME280;5729;43.570;27.826;2022-12-10T11:35:54;98191.03;;;20.37;100.00
11349;BME280;5729;43.570;27.826;2022-12-10T11:41:28;98179.25;;;20.15;100.00
11349;BME280;5729;43.570;27.826;2022-12-10T11:49:45;98171.09;;;19.89;100.00
11349;BME280;5729;43.570;27.826;2022-12-10T12:00:52;98171.88;;;19.39;100.00
11349;BME280;5729;43.570;27.826;2022-12-10T12:11:29;98180.81;;;19.02;100.00
11349;BME280;5729;43.570;27.826;2022-12-10T12:19:32;98194.16;;;19.25;100.00
11349;BME280;5729;43.570;27.826;2022-12-10T12:22:07;98191.06;;;19.10;100.00
11349;BME280;5729;43.570;27.826;2022-12-10T12:24:37;98174.94;;;19.16;100.00
11349;BME280;5729;43.570;27.826;2022-12-10T12:29:43;98157.31;;;19.04;100.00
11349;BME280;5729;43.570;27.826;2022-12-10T12:32:20;98150.53;;;19.09;100.00
11349;BME280;5729;43.570;27.826;2022-12-10T12:34:52;98152.84;;;19.10;100.00
11349;BME280;5729;43.570;27.826;2022-12-10T12:37:23;98130.22;;;18.97;100.00
11349;BME280;5729;43.570;27.826;2022-12-10T12:42:36;98141.06;;;18.59;100.00
11349;BME280;5729;43.570;27.826;2022-12-10T12:45:11;98146.16;;;18.57;100.00
11349;BME280;5729;43.570;27.826;2022-12-10T12:47:49;98138.41;;;18.56;100.00
11349;BME280;5729;43.570;27.826;2022-12-10T12:50:41;98135.34;;;18.54;100.00
11349;BME280;5729;43.570;27.826;2022-12-10T12:53:20;98134.00;;;18.45;100.00
11349;BME280;5729;43.570;27.826;2022-12-10T12:59:31;98145.91;;;18.23;100.00
11349;BME280;5729;43.570;27.826;2022-12-10T13:04:07;98123.47;;;18.02;100.00
11349;BME280;5729;43.570;27.826;2022-12-10T13:06:38;98130.44;;;18.03;100.00
11349;BME280;5729;43.570;27.826;2022-12-10T13:30:25;98140.00;;;17.79;100.00
11349;BME280;5729;43.570;27.826;2022-12-10T13:32:45;98147.91;;;17.73;100.00
11349;BME280;5729;43.570;27.826;2022-12-10T13:43:27;98122.59;;;17.40;100.00
11349;BME280;5729;43.570;27.826;2022-12-10T13:48:51;98125.81;;;17.19;100.00
11349;BME280;5729;43.570;27.826;2022-12-10T13:51:22;98134.94;;;17.29;100.00
11349;BME280;5729;43.570;27.826;2022-12-10T13:59:25;98135.75;;;17.10;100.00
11349;BME280;5729;43.570;27.826;2022-12-10T14:06:53;98148.56;;;16.93;100.00
11349;BME280;5729;43.570;27.826;2022-12-10T14:09:50;98139.00;;;16.85;100.00
11349;BME280;5729;43.570;27.826;2022-12-10T14:12:37;98137.97;;;16.79;100.00
11349;BME280;5729;43.570;27.826;2022-12-10T14:17:36;98140.91;;;16.68;100.00
11349;BME280;5729;43.570;27.826;2022-12-10T14:20:05;98133.59;;;16.61;100.00
11349;BME280;5729;43.570;27.826;2022-12-10T14:22:39;98129.31;;;16.44;100.00
11349;BME280;5729;43.570;27.826;2022-12-10T14:25:14;98113.03;;;16.41;100.00
11349;BME280;5729;43.570;27.826;2022-12-10T14:27:39;98118.28;;;16.31;100.00
11349;BME280;5729;43.570;27.826;2022-12-10T14:30:19;98115.63;;;16.28;100.00
11349;BME280;5729;43.570;27.826;2022-12-10T14:32:45;98116.94;;;16.20;100.00
11349;BME280;5729;43.570;27.826;2022-12-10T14:35:18;98106.88;;;16.17;100.00
11349;BME280;5729;43.570;27.826;2022-12-10T14:37:45;98096.28;;;16.03;100.00
11349;BME280;5729;43.570;27.826;2022-12-10T14:40:40;98116.38;;;16.09;100.00
11349;BME280;5729;43.570;27.826;2022-12-10T14:43:10;98112.66;;;15.99;100.00
11349;BME280;5729;43.570;27.826;2022-12-10T14:45:47;98110.41;;;15.94;100.00
11349;BME280;5729;43.570;27.826;2022-12-10T14:48:16;98112.84;;;15.88;100.00
11349;BME280;5729;43.570;27.826;2022-12-10T14:50:43;98106.34;;;15.82;100.00
11349;BME280;5729;43.570;27.826;2022-12-10T14:53:15;98109.41;;;15.84;100.00
11349;BME280;5729;43.570;27.826;2022-12-10T14:55:42;98103.34;;;15.77;100.00
11349;BME280;5729;43.570;27.826;2022-12-10T14:58:27;98114.56;;;15.79;100.00
11349;BME280;5729;43.570;27.826;2022-12-10T15:00:54;98115.84;;;15.71;100.00